METAR Data
IDs: Format: Raw Decoded Include TAF

Data at: 0431 UTC 26 Sep 2018

KCLL 260353Z AUTO 13006KT 10SM CLR 26/24 A2999 RMK AO2 SLP150 T02560239